Time;durP1;ratioP1;P1;durP2;ratioP2;P2;SDS_P1;SDS_P2;PMS_P1;PMS_P2;Temp;Humidity;BMP_temperature;BMP_pressure;BME280_temperature;BME280_humidity;BME280_pressure;Samples;Min_cycle;Max_cycle;Signal;HPM_P1;HPM_P2
2021/12/12 00:01:39;;;;;;;7.13;1.48;;;20.20;99.90;;;;;;5039745;28;20033;-67
2021/12/12 00:04:13;;;;;;;4.00;0.80;;;20.40;99.90;;;;;;5038163;28;20026;-67
2021/12/12 00:06:55;;;;;;;7.65;0.90;;;20.40;99.90;;;;;;5039046;28;20062;-67
2021/12/12 00:09:35;;;;;;;9.88;1.17;;;20.70;99.90;;;;;;5035792;28;20025;-68
2021/12/12 00:12:10;;;;;;;4.63;0.70;;;20.60;99.90;;;;;;5039300;28;20053;-68
2021/12/12 00:14:37;;;;;;;5.78;1.45;;;20.70;99.90;;;;;;5038004;28;20018;-68
2021/12/12 00:17:08;;;;;;;5.43;0.73;;;20.80;99.90;;;;;;5039443;28;20061;-68
2021/12/12 00:19:36;;;;;;;8.95;1.42;;;20.80;99.90;;;;;;5038932;28;20048;-68
2021/12/12 00:22:08;;;;;;;4.15;1.00;;;20.60;99.90;;;;;;5037924;28;20014;-68
2021/12/12 00:24:35;;;;;;;5.85;1.33;;;20.50;99.90;;;;;;5039183;28;20017;-68
2021/12/12 00:27:06;;;;;;;7.32;1.40;;;20.40;99.90;;;;;;5039350;28;20021;-68
2021/12/12 00:29:35;;;;;;;4.28;0.70;;;20.70;99.90;;;;;;5038827;28;20036;-68
2021/12/12 00:32:11;;;;;;;4.28;1.15;;;21.00;99.90;;;;;;5038618;28;20029;-68
2021/12/12 00:34:44;;;;;;;6.70;0.95;;;21.10;99.90;;;;;;5038829;28;20037;-68
2021/12/12 00:37:12;;;;;;;3.75;0.70;;;20.80;99.90;;;;;;5039709;28;20034;-68
2021/12/12 00:39:44;;;;;;;10.32;1.50;;;20.90;99.90;;;;;;5038596;28;20010;-68
2021/12/12 00:42:16;;;;;;;9.23;1.80;;;21.00;99.90;;;;;;5039168;28;20034;-68
2021/12/12 00:44:52;;;;;;;6.15;1.10;;;21.20;99.90;;;;;;5038649;28;20026;-67
2021/12/12 00:47:20;;;;;;;6.45;1.15;;;21.20;99.90;;;;;;5039148;28;20045;-68
2021/12/12 00:49:48;;;;;;;4.97;1.02;;;21.20;99.90;;;;;;5038784;28;20022;-68
2021/12/12 00:52:18;;;;;;;3.88;0.73;;;21.20;99.90;;;;;;5039261;28;20014;-68
2021/12/12 00:54:47;;;;;;;6.53;0.85;;;21.40;99.90;;;;;;5038675;28;20045;-68
2021/12/12 00:57:18;;;;;;;8.00;0.98;;;21.70;99.90;;;;;;5038516;28;20034;-68
2021/12/12 00:59:47;;;;;;;5.82;0.95;;;21.90;99.90;;;;;;5036998;28;20025;-68
2021/12/12 01:02:23;;;;;;;5.82;1.60;;;22.00;99.90;;;;;;5033800;28;20024;-68
2021/12/12 01:04:54;;;;;;;7.13;1.35;;;21.40;99.90;;;;;;5038111;28;20041;-68
2021/12/12 01:07:36;;;;;;;6.88;1.20;;;21.30;99.90;;;;;;5038400;28;20097;-67
2021/12/12 01:10:15;;;;;;;4.00;0.70;;;21.60;99.90;;;;;;5019129;28;20021;-67
2021/12/12 01:12:43;;;;;;;7.18;1.05;;;21.60;99.90;;;;;;5021064;28;20058;-68
2021/12/12 01:15:16;;;;;;;5.47;0.95;;;22.30;99.90;;;;;;5038032;28;20038;-69
2021/12/12 01:17:49;;;;;;;7.10;1.88;;;22.50;99.90;;;;;;5038021;28;20086;-68
2021/12/12 01:20:29;;;;;;;6.30;1.38;;;22.40;99.90;;;;;;5038382;28;20018;-68
2021/12/12 01:23:00;;;;;;;5.40;1.17;;;22.70;99.90;;;;;;5038283;28;20026;-68
2021/12/12 01:25:33;;;;;;;7.15;1.17;;;22.70;99.90;;;;;;5036310;28;20101;-68
2021/12/12 01:28:01;;;;;;;8.20;1.35;;;21.90;99.90;;;;;;5036547;28;20038;-68
2021/12/12 01:30:29;;;;;;;6.63;1.15;;;21.60;99.90;;;;;;5036151;28;20038;-69
2021/12/12 01:32:58;;;;;;;10.40;1.85;;;21.40;99.90;;;;;;5038018;28;20018;-68
2021/12/12 01:35:26;;;;;;;5.47;0.98;;;21.40;99.90;;;;;;5053153;28;20034;-68
2021/12/12 01:40:49;;;;;;;11.77;2.13;;;21.30;99.90;;;;;;5036729;28;20032;-68
2021/12/12 01:43:40;;;;;;;9.75;1.65;;;21.20;99.90;;;;;;5033985;28;20014;-69
2021/12/12 01:46:24;;;;;;;8.02;1.45;;;21.70;99.90;;;;;;5035633;28;20010;-69
2021/12/12 01:49:08;;;;;;;6.53;1.25;;;21.70;99.90;;;;;;5053138;28;20060;-68
2021/12/12 01:51:38;;;;;;;9.02;1.90;;;22.10;99.90;;;;;;5038227;28;20078;-68
2021/12/12 01:54:08;;;;;;;8.57;1.45;;;21.80;99.90;;;;;;5034799;28;20498;-69
2021/12/12 01:56:42;;;;;;;10.93;1.60;;;21.40;99.90;;;;;;5033966;28;20018;-67
2021/12/12 01:59:12;;;;;;;8.85;1.20;;;21.60;99.90;;;;;;5030064;28;20098;-68
2021/12/12 02:01:43;;;;;;;9.07;1.20;;;21.90;99.90;;;;;;5030352;28;20025;-68
2021/12/12 02:04:24;;;;;;;7.97;1.48;;;21.10;99.90;;;;;;5033309;28;20053;-69
2021/12/12 02:06:53;;;;;;;6.32;1.55;;;21.00;99.90;;;;;;5037731;28;20077;-68
2021/12/12 02:09:22;;;;;;;6.93;1.30;;;21.70;99.90;;;;;;5037198;28;20069;-68
2021/12/12 02:11:52;;;;;;;3.67;0.70;;;21.90;99.90;;;;;;5037679;28;20045;-68
2021/12/12 02:14:21;;;;;;;10.20;1.40;;;22.00;99.90;;;;;;5037129;28;20078;-68
2021/12/12 02:16:53;;;;;;;6.22;1.10;;;22.20;99.90;;;;;;5037503;28;20020;-69
2021/12/12 02:19:30;;;;;;;9.90;1.10;;;22.40;99.90;;;;;;5035528;28;20038;-68
2021/12/12 02:22:09;;;;;;;5.45;0.95;;;21.90;99.90;;;;;;5036615;28;20045;-68
2021/12/12 02:38:27;;;;;;;6.93;2.70;;;22.40;99.90;;;;;;5036479;28;20018;-68
2021/12/12 02:40:58;;;;;;;5.47;0.90;;;22.10;99.90;;;;;;5037524;28;20045;-67
2021/12/12 02:43:28;;;;;;;11.57;3.38;;;22.20;99.90;;;;;;5036378;28;20045;-68
2021/12/12 02:45:57;;;;;;;5.75;1.85;;;21.90;99.90;;;;;;5052361;28;20018;-67
2021/12/12 02:48:31;;;;;;;3.97;0.88;;;21.90;99.90;;;;;;5022957;28;20049;-67
2021/12/12 02:51:00;;;;;;;;;;;22.40;99.90;;;;;;5026797;28;20029;-67
2021/12/12 02:53:39;;;;;;;6.63;1.60;;;22.50;99.90;;;;;;5021585;28;19909;-68
2021/12/12 02:56:14;;;;;;;7.07;1.50;;;22.10;99.90;;;;;;5020544;28;20033;-67
2021/12/12 02:58:44;;;;;;;4.20;1.20;;;21.40;99.90;;;;;;5020238;28;20022;-69
2021/12/12 03:01:14;;;;;;;6.55;1.65;;;21.60;99.90;;;;;;5040422;28;20018;-68
2021/12/12 03:03:43;;;;;;;7.63;1.48;;;21.80;99.90;;;;;;5037055;28;20033;-69
2021/12/12 03:06:15;;;;;;;4.82;0.98;;;21.40;99.90;;;;;;5040851;28;20037;-69
2021/12/12 03:08:46;;;;;;;10.38;1.77;;;21.00;99.90;;;;;;5039237;28;20010;-68
2021/12/12 03:11:14;;;;;;;5.78;1.42;;;21.50;99.90;;;;;;5038353;28;20038;-69
2021/12/12 03:13:42;;;;;;;8.88;1.52;;;21.60;99.90;;;;;;5039105;28;20044;-70
2021/12/12 03:16:12;;;;;;;8.38;1.55;;;22.00;99.90;;;;;;5038420;28;20052;-68
2021/12/12 03:18:43;;;;;;;10.65;1.27;;;21.90;99.90;;;;;;5035012;28;20057;-68
2021/12/12 03:21:30;;;;;;;8.77;1.60;;;22.00;99.90;;;;;;5039464;28;20045;-68
2021/12/12 03:24:01;;;;;;;5.95;1.20;;;22.00;99.90;;;;;;5026681;28;20041;-68
2021/12/12 03:26:28;;;;;;;6.88;1.77;;;22.10;99.90;;;;;;5019804;28;20037;-69
2021/12/12 03:28:58;;;;;;;15.00;6.60;;;21.90;99.90;;;;;;5038411;28;20506;-70
2021/12/12 03:31:35;;;;;;;9.77;1.83;;;21.90;99.90;;;;;;5038595;28;20014;-69
2021/12/12 03:34:07;;;;;;;6.70;2.00;;;21.80;99.90;;;;;;5041410;28;20026;-67
2021/12/12 03:36:35;;;;;;;6.78;1.27;;;21.50;99.90;;;;;;5019759;28;20409;-69
2021/12/12 03:39:10;;;;;;;10.70;1.52;;;21.20;99.90;;;;;;5015157;28;20025;-68
2021/12/12 03:41:37;;;;;;;;;;;21.20;99.90;;;;;;5027815;28;20042;-68
2021/12/12 03:44:11;;;;;;;10.75;1.42;;;21.30;99.90;;;;;;5032512;28;20301;-69
2021/12/12 03:46:38;;;;;;;10.88;1.63;;;21.30;99.90;;;;;;5031681;28;20080;-68
2021/12/12 03:49:07;;;;;;;11.07;2.40;;;21.40;99.90;;;;;;5027812;28;20034;-68
2021/12/12 03:51:37;;;;;;;6.18;1.30;;;21.60;99.90;;;;;;5023575;28;20794;-69
2021/12/12 03:54:05;;;;;;;10.45;1.77;;;21.50;99.90;;;;;;5032211;28;20048;-67
2021/12/12 03:56:35;;;;;;;13.38;1.92;;;21.50;99.90;;;;;;5004721;28;20023;-67
2021/12/12 03:59:03;;;;;;;9.70;1.55;;;21.00;99.90;;;;;;5017910;28;20054;-70
2021/12/12 04:01:53;;;;;;;8.52;1.40;;;20.90;99.90;;;;;;5036236;28;20082;-68
2021/12/12 04:04:27;;;;;;;10.65;1.60;;;21.00;99.90;;;;;;5022085;28;20018;-70
2021/12/12 04:06:56;;;;;;;7.82;1.58;;;20.90;99.90;;;;;;5049262;28;20280;-69
2021/12/12 04:09:24;;;;;;;13.52;2.85;;;20.80;99.90;;;;;;5026526;28;20057;-68
2021/12/12 04:11:59;;;;;;;10.52;1.90;;;20.90;99.90;;;;;;5018677;28;20129;-68
2021/12/12 04:14:28;;;;;;;9.73;1.52;;;21.00;99.90;;;;;;5020663;28;20038;-68
2021/12/12 04:17:00;;;;;;;10.63;2.08;;;21.00;99.90;;;;;;5020548;28;20026;-68
2021/12/12 04:19:28;;;;;;;13.68;2.10;;;21.20;99.90;;;;;;5019952;28;20025;-68
2021/12/12 04:21:56;;;;;;;12.73;3.33;;;21.00;99.90;;;;;;5020528;28;20084;-69
2021/12/12 04:24:34;;;;;;;18.63;2.40;;;20.60;99.90;;;;;;5016339;28;20040;-69
2021/12/12 04:27:02;;;;;;;11.55;1.83;;;20.50;99.90;;;;;;5015319;28;20034;-68
2021/12/12 04:29:34;;;;;;;10.52;1.80;;;20.60;99.90;;;;;;5017746;28;20494;-69
2021/12/12 04:32:14;;;;;;;12.77;2.70;;;20.80;99.90;;;;;;5014599;28;20521;-68
2021/12/12 04:34:46;;;;;;;8.75;2.63;;;20.60;99.90;;;;;;5017663;28;20576;-68
2021/12/12 04:37:15;;;;;;;14.13;2.30;;;20.40;99.90;;;;;;5015758;28;20018;-68
2021/12/12 04:39:48;;;;;;;12.20;2.20;;;20.50;99.90;;;;;;5016349;28;20026;-68
2021/12/12 04:42:24;;;;;;;9.53;1.93;;;20.50;99.90;;;;;;5012561;28;20033;-68
2021/12/12 04:44:55;;;;;;;16.98;2.38;;;20.30;99.90;;;;;;5019709;28;20034;-69
2021/12/12 04:51:01;;;;;;;15.07;2.83;;;20.50;99.90;;;;;;5000348;28;20057;-69
2021/12/12 04:53:52;;;;;;;11.40;1.83;;;20.40;99.90;;;;;;5009446;28;20025;-70
2021/12/12 04:56:23;;;;;;;13.50;2.15;;;20.20;99.90;;;;;;5025215;28;20041;-69
2021/12/12 04:59:13;;;;;;;9.45;2.10;;;20.30;99.90;;;;;;5028098;28;20028;-68
2021/12/12 05:01:53;;;;;;;11.18;2.20;;;20.10;99.90;;;;;;5025994;28;20034;-68
2021/12/12 05:04:43;;;;;;;11.50;2.28;;;20.10;99.90;;;;;;5024486;28;20029;-68
2021/12/12 05:07:15;;;;;;;12.90;2.00;;;20.00;99.90;;;;;;5031317;28;20054;-69
2021/12/12 05:09:50;;;;;;;19.67;3.22;;;19.90;99.90;;;;;;5026351;28;20018;-70
2021/12/12 05:12:38;;;;;;;9.93;1.50;;;20.30;99.90;;;;;;5020682;28;20049;-73
2021/12/12 05:15:12;;;;;;;14.45;2.03;;;20.60;99.90;;;;;;5008838;28;20031;-69
2021/12/12 05:17:55;;;;;;;21.10;3.67;;;20.30;99.90;;;;;;5004580;28;20052;-68
2021/12/12 05:20:36;;;;;;;9.73;1.83;;;20.40;99.90;;;;;;5024536;28;20045;-68
2021/12/12 05:23:07;;;;;;;12.43;1.88;;;20.10;99.90;;;;;;5022437;28;20378;-69
2021/12/12 05:26:07;;;;;;;15.70;2.78;;;20.10;99.90;;;;;;5016486;28;20080;-69
2021/12/12 05:28:59;;;;;;;11.98;2.95;;;20.40;99.90;;;;;;5015349;28;20483;-70
2021/12/12 05:31:27;;;;;;;13.73;1.80;;;20.30;99.90;;;;;;5014353;28;20132;-72
2021/12/12 05:33:56;;;;;;;14.57;1.90;;;20.50;99.90;;;;;;5017050;28;20030;-69
2021/12/12 05:36:24;;;;;;;8.02;1.42;;;20.50;99.90;;;;;;5014347;28;20632;-67
2021/12/12 05:38:53;;;;;;;11.43;2.00;;;20.50;99.90;;;;;;5015278;28;20030;-67
2021/12/12 05:41:22;;;;;;;13.70;2.58;;;20.50;99.90;;;;;;5016611;28;20112;-68
2021/12/12 05:43:52;;;;;;;13.20;2.85;;;20.40;99.90;;;;;;5031821;28;20458;-68
2021/12/12 05:46:20;;;;;;;14.00;2.33;;;20.50;99.90;;;;;;5015645;28;20053;-67
2021/12/12 05:48:50;;;;;;;10.82;2.05;;;20.60;99.90;;;;;;5010067;28;20034;-67
2021/12/12 05:51:18;;;;;;;9.98;1.77;;;20.70;99.90;;;;;;4999032;28;20427;-67
2021/12/12 05:53:48;;;;;;;9.13;1.65;;;20.50;99.90;;;;;;5006431;28;20487;-67
2021/12/12 05:56:16;;;;;;;14.70;2.92;;;20.60;99.90;;;;;;5011918;28;20038;-66
2021/12/12 05:58:43;;;;;;;12.43;2.00;;;20.60;99.90;;;;;;5013780;28;20034;-67
2021/12/12 06:01:12;;;;;;;11.90;2.60;;;20.70;99.90;;;;;;5021061;28;20030;-66
2021/12/12 06:03:42;;;;;;;11.57;2.58;;;20.50;99.90;;;;;;5032868;28;20038;-66
2021/12/12 06:06:14;;;;;;;12.00;3.55;;;20.50;99.90;;;;;;5031598;28;20034;-66
2021/12/12 06:08:44;;;;;;;9.88;1.55;;;20.40;99.90;;;;;;5028919;28;20026;-66
2021/12/12 06:11:14;;;;;;;13.15;2.97;;;20.50;99.90;;;;;;5034563;28;20356;-66
2021/12/12 06:13:43;;;;;;;17.05;2.78;;;20.40;99.90;;;;;;5035794;28;20034;-67
2021/12/12 06:16:19;;;;;;;9.35;1.52;;;20.50;99.90;;;;;;5027257;28;20088;-66
2021/12/12 06:19:04;;;;;;;14.02;2.85;;;20.50;99.90;;;;;;5026003;28;20030;-66
2021/12/12 06:21:32;;;;;;;15.38;2.60;;;20.50;99.90;;;;;;5028050;28;20410;-66
2021/12/12 06:24:00;;;;;;;12.93;2.83;;;20.50;99.90;;;;;;5026786;28;20057;-66
2021/12/12 06:26:28;;;;;;;12.57;1.80;;;20.80;99.90;;;;;;5029411;28;20057;-66
2021/12/12 06:28:55;;;;;;;10.23;2.30;;;20.90;99.90;;;;;;5028970;28;20026;-66
2021/12/12 06:31:23;;;;;;;9.40;1.60;;;20.80;99.90;;;;;;5028445;28;20049;-66
2021/12/12 06:33:51;;;;;;;7.93;1.67;;;20.80;99.90;;;;;;5028570;28;20028;-66
2021/12/12 06:36:19;;;;;;;12.35;1.02;;;21.00;99.90;;;;;;5032999;28;20013;-67
2021/12/12 06:38:51;;;;;;;9.43;1.75;;;21.50;99.90;;;;;;5033639;28;20057;-67
2021/12/12 06:41:20;;;;;;;11.52;1.77;;;21.50;99.90;;;;;;5035015;28;20101;-66
2021/12/12 06:43:49;;;;;;;12.15;2.40;;;21.70;99.90;;;;;;5029869;28;20037;-66
2021/12/12 06:46:18;;;;;;;12.82;1.90;;;21.30;99.90;;;;;;5041551;28;20030;-66
2021/12/12 06:48:45;;;;;;;9.07;1.63;;;21.00;99.90;;;;;;5029265;28;20068;-65
2021/12/12 06:51:13;;;;;;;11.15;2.20;;;20.70;99.90;;;;;;5009329;28;20030;-65
2021/12/12 06:53:45;;;;;;;10.90;1.83;;;20.40;99.90;;;;;;5021496;28;20375;-66
2021/12/12 06:56:17;;;;;;;11.50;2.90;;;20.30;99.90;;;;;;5037532;28;20018;-67
2021/12/12 06:58:45;;;;;;;12.35;2.35;;;20.20;99.90;;;;;;5035271;28;20049;-67
2021/12/12 07:01:19;;;;;;;11.63;2.28;;;20.20;99.90;;;;;;5035930;28;20018;-66
2021/12/12 07:03:47;;;;;;;9.75;2.03;;;20.30;99.90;;;;;;5035341;28;20018;-67
2021/12/12 07:06:19;;;;;;;8.45;1.50;;;20.30;99.90;;;;;;5036414;28;20037;-67
2021/12/12 07:08:47;;;;;;;9.73;1.60;;;20.00;99.90;;;;;;5052221;28;20038;-67
2021/12/12 07:11:20;;;;;;;14.15;1.67;;;20.00;99.90;;;;;;5036691;28;20097;-67
2021/12/12 07:13:50;;;;;;;11.88;2.70;;;20.00;99.90;;;;;;5036000;28;20029;-66
2021/12/12 07:16:20;;;;;;;9.95;2.33;;;20.20;99.90;;;;;;5051898;28;20029;-66
2021/12/12 07:18:47;;;;;;;10.13;2.70;;;21.20;99.90;;;;;;5034883;28;20049;-66
2021/12/12 07:21:16;;;;;;;12.15;2.08;;;21.40;99.90;;;;;;5034344;28;20041;-66
2021/12/12 07:23:45;;;;;;;15.50;8.00;;;21.10;99.90;;;;;;5034120;28;20026;-67
2021/12/12 07:26:15;;;;;;;11.20;3.00;;;20.80;99.90;;;;;;5036149;28;20010;-66
2021/12/12 07:28:43;;;;;;;15.90;2.33;;;20.40;99.90;;;;;;5027814;28;20053;-66
2021/12/12 07:31:19;;;;;;;14.00;1.95;;;20.20;99.90;;;;;;5015617;28;20086;-68
2021/12/12 07:33:49;;;;;;;13.48;3.53;;;20.10;99.90;;;;;;5016504;28;20094;-67
2021/12/12 07:36:18;;;;;;;9.50;1.77;;;20.20;99.90;;;;;;5026709;28;20020;-68
2021/12/12 07:38:49;;;;;;;11.13;3.60;;;20.50;99.90;;;;;;5056058;28;20010;-66
2021/12/12 07:41:22;;;;;;;10.60;1.63;;;20.60;99.90;;;;;;5058057;28;20010;-67
2021/12/12 07:43:49;;;;;;;10.18;1.92;;;20.50;99.90;;;;;;5059378;28;20031;-67
2021/12/12 07:46:19;;;;;;;9.05;1.42;;;21.10;99.90;;;;;;5041189;28;20050;-66
2021/12/12 07:48:49;;;;;;;8.63;1.15;;;20.70;99.90;;;;;;5022712;28;20034;-66
2021/12/12 07:51:18;;;;;;;13.00;1.55;;;20.10;99.90;;;;;;5051742;28;20018;-67
2021/12/12 07:53:52;;;;;;;9.73;1.50;;;19.70;99.90;;;;;;5036327;28;20022;-66
2021/12/12 07:56:21;;;;;;;7.22;1.25;;;19.50;99.90;;;;;;5037933;28;20009;-66
2021/12/12 07:58:50;;;;;;;9.45;1.95;;;19.50;99.90;;;;;;5039215;28;20026;-67
2021/12/12 08:01:18;;;;;;;10.02;1.38;;;19.50;99.90;;;;;;5038106;28;20096;-66
2021/12/12 08:03:46;;;;;;;13.15;2.05;;;19.30;99.90;;;;;;5037838;28;20053;-66
2021/12/12 08:06:15;;;;;;;8.40;1.63;;;19.10;99.90;;;;;;5036832;28;20074;-66
2021/12/12 08:08:44;;;;;;;7.50;1.25;;;19.10;99.90;;;;;;5038640;28;20057;-67
2021/12/12 08:11:14;;;;;;;10.35;2.50;;;19.00;99.90;;;;;;5039155;28;20062;-67
2021/12/12 08:13:42;;;;;;;11.43;1.20;;;19.00;99.90;;;;;;5038522;28;20105;-66
2021/12/12 08:16:09;;;;;;;8.98;0.82;;;18.90;99.90;;;;;;5039151;28;20033;-66
2021/12/12 08:18:39;;;;;;;7.18;1.23;;;18.80;99.90;;;;;;5039884;28;20025;-66
2021/12/12 08:21:07;;;;;;;7.65;1.40;;;18.80;99.90;;;;;;5039864;28;20014;-67
2021/12/12 08:23:35;;;;;;;8.93;1.95;;;18.80;99.90;;;;;;5036050;28;20018;-66
2021/12/12 08:26:07;;;;;;;6.50;1.13;;;18.70;99.90;;;;;;5038566;28;20006;-66
2021/12/12 08:28:35;;;;;;;7.93;1.02;;;18.60;99.90;;;;;;5039437;28;20022;-67
2021/12/12 08:31:04;;;;;;;8.90;1.13;;;18.60;99.90;;;;;;5038928;28;20052;-67
2021/12/12 08:33:33;;;;;;;6.78;1.75;;;18.60;99.90;;;;;;5038857;28;20042;-66
2021/12/12 08:36:01;;;;;;;11.38;1.63;;;18.70;99.90;;;;;;5039341;28;20010;-67
2021/12/12 08:38:29;;;;;;;13.07;2.40;;;18.60;99.90;;;;;;5039160;28;20006;-67
2021/12/12 08:41:00;;;;;;;6.60;1.08;;;18.60;99.90;;;;;;5049735;28;20034;-67
2021/12/12 08:43:30;;;;;;;9.32;1.88;;;18.60;99.90;;;;;;5020413;28;20030;-67
2021/12/12 08:46:10;;;;;;;9.57;2.28;;;18.50;99.90;;;;;;5036417;28;20014;-66
2021/12/12 08:48:51;;;;;;;5.85;0.93;;;18.40;99.90;;;;;;5037646;28;20043;-66
2021/12/12 08:51:40;;;;;;;7.93;1.33;;;18.40;99.90;;;;;;5038804;28;20026;-67
2021/12/12 08:54:15;;;;;;;10.77;1.30;;;18.40;99.90;;;;;;5037404;28;20042;-67
2021/12/12 08:56:49;;;;;;;14.40;2.58;;;18.40;99.90;;;;;;5038666;28;20010;-66
2021/12/12 08:59:24;;;;;;;9.60;1.88;;;18.30;99.90;;;;;;5037787;28;20060;-67
2021/12/12 09:01:56;;;;;;;9.13;1.90;;;18.30;99.90;;;;;;5038444;28;20021;-67
2021/12/12 09:04:23;;;;;;;7.55;1.23;;;18.30;99.90;;;;;;5038113;28;20026;-67
2021/12/12 09:07:17;;;;;;;14.43;1.92;;;18.20;99.90;;;;;;5032831;28;20030;-67
2021/12/12 09:10:16;;;;;;;8.75;1.85;;;18.20;99.90;;;;;;5038717;28;20065;-67
2021/12/12 09:12:57;;;;;;;7.85;1.85;;;18.20;99.90;;;;;;5035475;28;20097;-67
2021/12/12 09:15:38;;;;;;;10.32;1.33;;;18.10;99.90;;;;;;5050628;28;20048;-67
2021/12/12 09:18:31;;;;;;;9.93;1.17;;;18.10;99.90;;;;;;5036359;28;20022;-67
2021/12/12 09:21:48;;;;;;;10.80;2.25;;;18.10;99.90;;;;;;5038097;28;20006;-68
2021/12/12 09:24:44;;;;;;;9.57;1.35;;;18.10;99.90;;;;;;5013302;28;20022;-67
2021/12/12 09:27:18;;;;;;;5.90;1.48;;;18.10;99.90;;;;;;5030125;28;20081;-68
2021/12/12 09:30:10;;;;;;;7.75;1.33;;;18.10;99.90;;;;;;5037820;28;20017;-67
2021/12/12 09:32:42;;;;;;;11.82;1.45;;;18.10;99.90;;;;;;5030850;28;20041;-67
2021/12/12 09:35:18;;;;;;;10.45;1.73;;;18.10;99.90;;;;;;5037574;28;20010;-67
2021/12/12 09:38:04;;;;;;;13.10;2.30;;;18.20;99.90;;;;;;5038410;28;20030;-67
2021/12/12 09:40:58;;;;;;;9.18;2.67;;;18.20;99.90;;;;;;5037408;28;20029;-67
2021/12/12 09:43:49;;;;;;;8.32;1.25;;;18.20;99.90;;;;;;5037241;28;20026;-66
2021/12/12 09:46:55;;;;;;;11.10;1.30;;;18.30;99.90;;;;;;5037012;28;20031;-67
2021/12/12 09:52:52;;;;;;;12.57;2.38;;;18.30;99.90;;;;;;5017711;28;20090;-67
2021/12/12 09:55:37;;;;;;;6.15;1.55;;;18.30;99.90;;;;;;5018479;28;20061;-67
2021/12/12 09:58:14;;;;;;;9.07;1.17;;;18.30;99.90;;;;;;5017626;28;20427;-67
2021/12/12 10:00:53;;;;;;;12.45;1.20;;;18.30;99.90;;;;;;5017395;28;20011;-66
2021/12/12 10:03:48;;;;;;;9.65;1.73;;;18.20;99.90;;;;;;5017617;28;20197;-67
2021/12/12 10:06:46;;;;;;;5.88;1.60;;;18.30;99.90;;;;;;5012939;28;20029;-67
2021/12/12 10:09:23;;;;;;;8.23;1.83;;;18.30;99.90;;;;;;5028991;28;20029;-67
2021/12/12 10:12:26;;;;;;;9.98;1.80;;;18.20;99.90;;;;;;5037816;28;20053;-67
2021/12/12 10:14:53;;;;;;;5.75;1.20;;;18.20;99.90;;;;;;4981071;28;20035;-67
2021/12/12 10:17:42;;;;;;;13.05;2.10;;;18.20;99.90;;;;;;5031164;28;20037;-66
2021/12/12 10:20:32;;;;;;;9.77;1.95;;;18.20;99.90;;;;;;5056802;28;20009;-66
2021/12/12 10:23:16;;;;;;;10.32;2.22;;;18.10;99.90;;;;;;5042691;28;20034;-67
2021/12/12 10:25:56;;;;;;;8.90;2.28;;;18.20;99.90;;;;;;5037397;28;20017;-66
2021/12/12 10:29:03;;;;;;;15.85;2.92;;;18.10;99.90;;;;;;5037559;28;20018;-67
2021/12/12 10:31:34;;;;;;;11.43;1.73;;;18.20;99.90;;;;;;5036870;28;20018;-67
2021/12/12 10:34:01;;;;;;;10.18;1.83;;;18.10;99.90;;;;;;5037339;28;20069;-67
2021/12/12 10:36:54;;;;;;;10.20;1.85;;;18.10;99.90;;;;;;5037479;28;20024;-67
2021/12/12 10:39:34;;;;;;;14.75;1.88;;;18.10;99.90;;;;;;5027261;28;20033;-67
2021/12/12 10:42:13;;;;;;;19.95;1.75;;;18.10;99.90;;;;;;5035705;28;20018;-67
2021/12/12 10:44:54;;;;;;;13.25;1.95;;;18.10;99.90;;;;;;5034506;28;20026;-67
2021/12/12 10:47:34;;;;;;;14.00;2.63;;;18.10;99.90;;;;;;5036377;28;20018;-67
2021/12/12 10:50:10;;;;;;;8.90;1.67;;;18.10;99.90;;;;;;5024309;28;20018;-67
2021/12/12 10:53:04;;;;;;;13.40;2.15;;;18.10;99.90;;;;;;5034579;28;20033;-67
2021/12/12 10:55:56;;;;;;;13.48;2.55;;;18.10;99.90;;;;;;5027626;28;20041;-66
2021/12/12 10:58:46;;;;;;;16.23;2.10;;;18.10;99.90;;;;;;5035228;28;20082;-67
2021/12/12 11:01:18;;;;;;;15.25;1.95;;;18.10;99.90;;;;;;5037318;28;20018;-67
2021/12/12 11:03:51;;;;;;;16.88;1.75;;;18.10;99.90;;;;;;5035349;28;20061;-67
2021/12/12 11:06:35;;;;;;;16.40;2.80;;;18.10;99.90;;;;;;5036292;28;20037;-67
2021/12/12 11:09:02;;;;;;;9.73;2.10;;;18.10;99.90;;;;;;5034377;28;20018;-67
2021/12/12 11:11:55;;;;;;;19.45;2.38;;;18.10;99.90;;;;;;5035504;28;20278;-69
2021/12/12 11:14:31;;;;;;;15.85;2.85;;;18.00;99.90;;;;;;5035074;28;20386;-67
2021/12/12 11:17:14;;;;;;;11.98;2.10;;;18.10;99.90;;;;;;5039008;28;20033;-67
2021/12/12 11:19:46;;;;;;;12.32;1.75;;;18.10;99.90;;;;;;5048071;28;20026;-67
2021/12/12 11:22:19;;;;;;;12.65;1.85;;;18.00;99.90;;;;;;5060203;28;20041;-67
2021/12/12 11:24:50;;;;;;;10.30;2.70;;;18.00;99.90;;;;;;5040175;28;20022;-67
2021/12/12 11:27:23;;;;;;;11.55;1.98;;;18.00;99.90;;;;;;5040486;28;20042;-67
2021/12/12 11:30:00;;;;;;;16.48;2.05;;;18.00;99.90;;;;;;5040279;28;20090;-67
2021/12/12 11:32:35;;;;;;;15.50;2.08;;;18.00;99.90;;;;;;5038643;28;20037;-67
2021/12/12 11:35:07;;;;;;;16.55;2.45;;;18.00;99.90;;;;;;5040451;28;20006;-67
2021/12/12 11:37:57;;;;;;;23.67;2.83;;;18.00;99.90;;;;;;5039725;28;20026;-67
2021/12/12 11:40:43;;;;;;;12.15;2.53;;;18.00;99.90;;;;;;5034456;28;20017;-67
2021/12/12 11:43:33;;;;;;;15.18;2.15;;;18.00;99.90;;;;;;5027302;28;20101;-67
2021/12/12 11:46:05;;;;;;;15.50;2.25;;;17.90;99.90;;;;;;5033094;28;20034;-67
2021/12/12 11:48:41;;;;;;;12.05;2.38;;;17.90;99.90;;;;;;5039593;28;20033;-68
2021/12/12 11:51:21;;;;;;;17.95;2.25;;;17.90;99.90;;;;;;5040171;28;20033;-67
2021/12/12 11:54:01;;;;;;;12.73;1.98;;;17.90;99.90;;;;;;5038491;28;20090;-67
2021/12/12 11:56:51;;;;;;;16.20;2.58;;;17.90;99.90;;;;;;5039227;28;20344;-67
2021/12/12 11:59:33;;;;;;;13.10;2.42;;;17.90;99.90;;;;;;5039166;28;20028;-67
2021/12/12 12:02:23;;;;;;;17.55;2.50;;;17.90;99.90;;;;;;5039200;28;20025;-67
2021/12/12 12:05:02;;;;;;;13.77;2.38;;;17.90;99.90;;;;;;5006430;28;20030;-67
2021/12/12 12:07:41;;;;;;;17.50;2.22;;;17.90;99.90;;;;;;5039171;28;20030;-67
2021/12/12 12:10:35;;;;;;;23.63;2.95;;;17.80;99.90;;;;;;5038129;28;20430;-67
2021/12/12 12:13:06;;;;;;;22.02;2.70;;;17.80;99.90;;;;;;5038900;28;20033;-67
2021/12/12 12:15:54;;;;;;;16.45;2.88;;;17.80;99.90;;;;;;5020189;28;20026;-67
2021/12/12 12:18:35;;;;;;;10.38;1.55;;;17.80;99.90;;;;;;5035278;28;20034;-67
2021/12/12 12:21:08;;;;;;;18.35;2.28;;;17.70;99.90;;;;;;5038838;28;20057;-67
2021/12/12 12:27:02;;;;;;;11.25;1.45;;;17.70;99.90;;;;;;5038891;28;20034;-67
2021/12/12 12:29:33;;;;;;;14.50;1.80;;;17.60;99.90;;;;;;5054511;28;20057;-67
2021/12/12 12:32:21;;;;;;;14.27;2.92;;;17.70;99.90;;;;;;5038130;28;20055;-67
2021/12/12 12:34:57;;;;;;;20.05;2.85;;;17.60;99.90;;;;;;5036809;28;20048;-67
2021/12/12 12:38:12;;;;;;;18.08;2.22;;;17.70;99.90;;;;;;5037099;28;20078;-66
2021/12/12 12:41:29;;;;;;;12.07;2.65;;;17.60;99.90;;;;;;4993929;28;20022;-67
2021/12/12 12:44:33;;;;;;;14.18;2.63;;;17.60;99.90;;;;;;4978374;28;20071;-67
2021/12/12 12:47:36;;;;;;;17.80;2.03;;;17.60;99.90;;;;;;5022185;28;20026;-67
2021/12/12 12:50:39;;;;;;;12.82;2.22;;;17.60;99.90;;;;;;5021352;28;20046;-67
2021/12/12 12:53:20;;;;;;;12.00;1.60;;;17.60;99.90;;;;;;5024662;28;20014;-67
2021/12/12 12:56:14;;;;;;;10.13;1.75;;;17.50;99.90;;;;;;5038129;28;20769;-67
2021/12/12 12:58:56;;;;;;;19.30;2.22;;;17.50;99.90;;;;;;5037145;28;20003;-67
2021/12/12 13:01:48;;;;;;;22.92;3.55;;;17.50;99.90;;;;;;5038377;28;20609;-67
2021/12/12 13:04:25;;;;;;;15.70;2.17;;;17.50;99.90;;;;;;5035124;28;20030;-67
2021/12/12 13:07:23;;;;;;;8.82;2.30;;;17.50;99.90;;;;;;5037252;28;20020;-67
2021/12/12 13:10:16;;;;;;;11.85;1.63;;;17.50;99.90;;;;;;5036030;28;20082;-67
2021/12/12 13:13:00;;;;;;;14.13;2.20;;;17.40;99.90;;;;;;5037726;28;20094;-67
2021/12/12 13:15:47;;;;;;;9.20;1.20;;;17.50;99.90;;;;;;5037785;28;20045;-67
2021/12/12 13:18:38;;;;;;;11.40;2.88;;;17.50;99.90;;;;;;5035664;28;20022;-67
2021/12/12 13:21:08;;;;;;;13.90;2.08;;;17.40;99.90;;;;;;5037344;28;20018;-67
2021/12/12 13:24:05;;;;;;;10.68;1.05;;;17.40;99.90;;;;;;5027531;28;20035;-67
2021/12/12 13:26:42;;;;;;;14.63;2.33;;;17.40;99.90;;;;;;5018133;28;20073;-67
2021/12/12 13:29:36;;;;;;;13.07;2.20;;;17.40;99.90;;;;;;5040182;28;20047;-67
2021/12/12 13:32:27;;;;;;;14.07;2.30;;;17.40;99.90;;;;;;5030612;28;20102;-67
2021/12/12 13:35:08;;;;;;;13.05;3.03;;;17.40;99.90;;;;;;5036124;28;20084;-67
2021/12/12 13:38:12;;;;;;;12.60;2.28;;;17.40;99.90;;;;;;5034629;28;20030;-66
2021/12/12 13:41:07;;;;;;;11.25;1.92;;;17.30;99.90;;;;;;5036712;28;20022;-67
2021/12/12 13:43:40;;;;;;;13.30;1.67;;;17.40;99.90;;;;;;5025555;28;20078;-67
2021/12/12 13:46:43;;;;;;;13.82;2.35;;;17.40;99.90;;;;;;5036366;28;20018;-67
2021/12/12 13:49:35;;;;;;;15.02;1.83;;;17.40;99.90;;;;;;4994174;28;20027;-67
2021/12/12 13:52:25;;;;;;;16.27;2.13;;;17.40;99.90;;;;;;5029537;28;20081;-67
2021/12/12 13:55:09;;;;;;;16.02;2.33;;;17.30;99.90;;;;;;5033162;28;20010;-67